Time;durP1;ratioP1;P1;durP2;ratioP2;P2;SDS_P1;SDS_P2;PMS_P1;PMS_P2;Temp;Humidity;BMP_temperature;BMP_pressure;BME280_temperature;BME280_humidity;BME280_pressure;Samples;Min_cycle;Max_cycle;Signal;HPM_P1;HPM_P2
2022/10/05 00:01:22;;;;;;;;;;;;;;;;;;5059918;28;1951;-75
2022/10/05 00:03:48;;;;;;;;;;;;;;;;;;5058546;28;977;-75
2022/10/05 00:06:13;;;;;;;;;;;;;;;;;;5059370;28;894;-75
2022/10/05 00:08:38;;;;;;;;;;;;;;;;;;5059922;28;981;-75
2022/10/05 00:11:07;;;;;;;;;;;;;;;;;;5059517;28;1148;-75
2022/10/05 00:13:32;;;;;;;;;;;;;;;;;;5060095;28;1000;-75
2022/10/05 00:16:07;;;;;;;;;;;;;;;;;;5059534;28;1001;-75
2022/10/05 00:18:32;;;;;;;;;;;;;;;;;;5059980;28;951;-75
2022/10/05 00:20:58;;;;;;;;;;;;;;;;;;5059520;28;1886;-75
2022/10/05 00:23:25;;;;;;;;;;;;;;;;;;5059459;28;819;-75
2022/10/05 00:25:52;;;;;;;;;;;;;;;;;;5060366;28;890;-75
2022/10/05 00:28:21;;;;;;;;;;;;;;;;;;5063131;28;831;-75
2022/10/05 00:30:46;;;;;;;;;;;;;;;;;;5062979;28;1174;-75
2022/10/05 00:33:12;;;;;;;;;;;;;;;;;;5063228;28;926;-75
2022/10/05 00:35:37;;;;;;;;;;;;;;;;;;5062954;28;997;-75
2022/10/05 00:38:02;;;;;;;;;;;;;;;;;;5063082;28;779;-75
2022/10/05 00:40:30;;;;;;;;;;;;;;;;;;5062735;28;1902;-75
2022/10/05 00:43:10;;;;;;;;;;;;;;;;;;5063160;28;886;-75
2022/10/05 00:45:47;;;;;;;;;;;;;;;;;;5062259;28;1024;-75
2022/10/05 00:48:12;;;;;;;;;;;;;;;;;;5062957;28;898;-75
2022/10/05 00:50:56;;;;;;;;;;;;;;;;;;5062574;28;1156;-74
2022/10/05 00:53:47;;;;;;;;;;;;;;;;;;5059881;28;1045;-75
2022/10/05 00:56:39;;;;;;;;;;;;;;;;;;5011720;28;1081;-75
2022/10/05 00:59:11;;;;;;;;;;;;;;;;;;5042849;28;1332;-75
2022/10/05 01:01:42;;;;;;;;;;;;;;;;;;5042412;28;2008;-75
2022/10/05 01:04:19;;;;;;;;;;;;;;;;;;5042812;28;849;-75
2022/10/05 01:06:52;;;;;;;;;;;;;;;;;;5042425;28;1009;-75
2022/10/05 01:09:25;;;;;;;;;;;;;;;;;;5042615;28;1283;-75
2022/10/05 01:11:57;;;;;;;;;;;;;;;;;;5042619;28;953;-75
2022/10/05 01:14:25;;;;;;;;;;;;;;;;;;5042279;28;1009;-75
2022/10/05 01:16:54;;;;;;;;;;;;;;;;;;5042199;28;1048;-75
2022/10/05 01:19:45;;;;;;;;;;;;;;;;;;5042464;28;1164;-75
2022/10/05 01:22:28;;;;;;;;;;;;;;;;;;5042337;28;1977;-75
2022/10/05 01:25:01;;;;;;;;;;;;;;;;;;5042225;28;811;-75
2022/10/05 01:27:35;;;;;;;;;;;;;;;;;;5042392;28;819;-75
2022/10/05 01:30:09;;;;;;;;;;;;;;;;;;5042333;28;1270;-75
2022/10/05 01:32:35;;;;;;;;;;;;;;;;;;5042331;28;807;-75
2022/10/05 01:35:03;;;;;;;;;;;;;;;;;;5041564;28;894;-75
2022/10/05 01:37:28;;;;;;;;;;;;;;;;;;5041238;28;982;-75
2022/10/05 01:39:56;;;;;;;;;;;;;;;;;;5041901;28;1271;-75
2022/10/05 01:42:45;;;;;;;;;;;;;;;;;;5042039;28;1959;-75
2022/10/05 01:45:19;;;;;;;;;;;;;;;;;;5041697;28;1013;-75
2022/10/05 01:47:46;;;;;;;;;;;;;;;;;;5041887;28;1036;-75
2022/10/05 01:50:16;;;;;;;;;;;;;;;;;;5041898;28;1287;-75
2022/10/05 01:52:50;;;;;;;;;;;;;;;;;;5042105;28;830;-75
2022/10/05 01:55:29;;;;;;;;;;;;;;;;;;5041333;28;878;-75
2022/10/05 01:57:55;;;;;;;;;;;;;;;;;;5040736;28;973;-75
2022/10/05 02:00:20;;;;;;;;;;;;;;;;;;5041677;28;1184;-75
2022/10/05 02:03:05;;;;;;;;;;;;;;;;;;5042093;28;1886;-75
2022/10/05 02:05:33;;;;;;;;;;;;;;;;;;5027133;28;1133;-75
2022/10/05 02:08:00;;;;;;;;;;;;;;;;;;5041432;28;1031;-75
2022/10/05 02:10:28;;;;;;;;;;;;;;;;;;5041475;28;1207;-75
2022/10/05 02:13:00;;;;;;;;;;;;;;;;;;5041497;28;803;-75
2022/10/05 02:15:28;;;;;;;;;;;;;;;;;;5041102;28;941;-75
2022/10/05 02:17:56;;;;;;;;;;;;;;;;;;5041443;28;996;-75
2022/10/05 02:20:23;;;;;;;;;;;;;;;;;;5041465;28;1228;-75
2022/10/05 02:22:50;;;;;;;;;;;;;;;;;;5041241;28;1886;-75
2022/10/05 02:25:18;;;;;;;;;;;;;;;;;;5041131;28;886;-75
2022/10/05 02:27:48;;;;;;;;;;;;;;;;;;5041326;28;997;-75
2022/10/05 02:30:15;;;;;;;;;;;;;;;;;;5041599;28;1200;-75
2022/10/05 02:32:43;;;;;;;;;;;;;;;;;;5041204;28;1052;-75
2022/10/05 02:35:16;;;;;;;;;;;;;;;;;;5040873;28;1024;-75
2022/10/05 02:37:44;;;;;;;;;;;;;;;;;;5041184;28;1064;-75
2022/10/05 02:40:09;;;;;;;;;;;;;;;;;;5041252;28;1239;-75
2022/10/05 02:42:44;;;;;;;;;;;;;;;;;;5041025;28;1890;-75
2022/10/05 02:45:27;;;;;;;;;;;;;;;;;;5040739;28;938;-75
2022/10/05 02:48:00;;;;;;;;;;;;;;;;;;5040919;28;1052;-75
2022/10/05 02:50:31;;;;;;;;;;;;;;;;;;5041073;28;1255;-75
2022/10/05 02:53:08;;;;;;;;;;;;;;;;;;5039546;28;946;-75
2022/10/05 02:55:54;;;;;;;;;;;;;;;;;;5053703;28;1029;-75
2022/10/05 02:58:26;;;;;;;;;;;;;;;;;;5060795;28;1094;-75
2022/10/05 03:01:10;;;;;;;;;;;;;;;;;;5060722;28;1906;-75
2022/10/05 03:03:54;;;;;;;;;;;;;;;;;;5060825;28;740;-75
2022/10/05 03:06:29;;;;;;;;;;;;;;;;;;5060424;28;882;-75
2022/10/05 03:08:54;;;;;;;;;;;;;;;;;;5060661;28;926;-75
2022/10/05 03:11:38;;;;;;;;;;;;;;;;;;5060635;28;1195;-75
2022/10/05 03:14:10;;;;;;;;;;;;;;;;;;5060598;28;982;-75
2022/10/05 03:16:55;;;;;;;;;;;;;;;;;;5060429;28;1013;-75
2022/10/05 03:19:29;;;;;;;;;;;;;;;;;;5060615;28;1212;-74
2022/10/05 03:21:54;;;;;;;;;;;;;;;;;;5060587;28;1914;-75
2022/10/05 03:24:42;;;;;;;;;;;;;;;;;;5060234;28;962;-75
2022/10/05 03:27:26;;;;;;;;;;;;;;;;;;5060554;28;944;-75
2022/10/05 03:30:06;;;;;;;;;;;;;;;;;;5060517;28;1168;-75
2022/10/05 03:32:48;;;;;;;;;;;;;;;;;;5042478;28;1052;-74
2022/10/05 03:35:16;;;;;;;;;;;;;;;;;;5059912;28;878;-74
2022/10/05 03:38:00;;;;;;;;;;;;;;;;;;5060775;28;993;-75
2022/10/05 03:40:30;;;;;;;;;;;;;;;;;;5059866;28;1243;-75
2022/10/05 03:43:00;;;;;;;;;;;;;;;;;;5060227;28;1955;-75
2022/10/05 03:45:29;;;;;;;;;;;;;;;;;;5059617;28;910;-74
2022/10/05 03:47:58;;;;;;;;;;;;;;;;;;5060479;28;1005;-75
2022/10/05 03:50:26;;;;;;;;;;;;;;;;;;5059869;28;1263;-75
2022/10/05 03:53:05;;;;;;;;;;;;;;;;;;5060371;28;831;-74
2022/10/05 03:55:35;;;;;;;;;;;;;;;;;;5059710;28;1045;-74
2022/10/05 03:58:05;;;;;;;;;;;;;;;;;;5060163;28;933;-74
2022/10/05 04:00:30;;;;;;;;;;;;;;;;;;5060342;28;1180;-74
2022/10/05 04:02:59;;;;;;;;;;;;;;;;;;5063697;28;1890;-75
2022/10/05 04:05:29;;;;;;;;;;;;;;;;;;5063266;28;1049;-74
2022/10/05 04:07:55;;;;;;;;;;;;;;;;;;5045730;28;1283;-74
2022/10/05 04:10:24;;;;;;;;;;;;;;;;;;5063304;28;1250;-75
2022/10/05 04:12:56;;;;;;;;;;;;;;;;;;5063861;28;957;-75
2022/10/05 04:15:32;;;;;;;;;;;;;;;;;;5062965;28;1106;-75
2022/10/05 04:18:05;;;;;;;;;;;;;;;;;;5045598;28;1397;-75
2022/10/05 04:20:36;;;;;;;;;;;;;;;;;;5063358;28;1173;-75
2022/10/05 04:23:24;;;;;;;;;;;;;;;;;;5063318;28;902;-75
2022/10/05 04:25:50;;;;;;;;;;;;;;;;;;5054599;28;1227;-75
2022/10/05 04:28:45;;;;;;;;;;;;;;;;;;5063388;28;956;-75
2022/10/05 04:31:12;;;;;;;;;;;;;;;;;;5031825;28;1225;-74
2022/10/05 04:33:37;;;;;;;;;;;;;;;;;;5063123;28;906;-74
2022/10/05 04:36:11;;;;;;;;;;;;;;;;;;5062950;28;716;-75
2022/10/05 04:38:43;;;;;;;;;;;;;;;;;;5063465;28;774;-75
2022/10/05 04:41:15;;;;;;;;;;;;;;;;;;5062662;28;1985;-75
2022/10/05 04:44:18;;;;;;;;;;;;;;;;;;5063064;28;907;-74
2022/10/05 04:46:55;;;;;;;;;;;;;;;;;;5000425;28;1222;-74
2022/10/05 04:49:56;;;;;;;;;;;;;;;;;;5001080;28;1303;-74
2022/10/05 04:52:33;;;;;;;;;;;;;;;;;;4992186;28;1319;-74
2022/10/05 04:55:07;;;;;;;;;;;;;;;;;;5054163;28;1077;-75
2022/10/05 04:57:39;;;;;;;;;;;;;;;;;;5063049;28;803;-74
2022/10/05 05:00:08;;;;;;;;;;;;;;;;;;5062549;28;1175;-75
2022/10/05 05:02:45;;;;;;;;;;;;;;;;;;5062669;28;1898;-75
2022/10/05 05:05:16;;;;;;;;;;;;;;;;;;5062271;28;946;-75
2022/10/05 05:07:57;;;;;;;;;;;;;;;;;;5062880;28;835;-75
2022/10/05 05:10:40;;;;;;;;;;;;;;;;;;5062363;28;1204;-75
2022/10/05 05:13:28;;;;;;;;;;;;;;;;;;5043195;28;1540;-75
2022/10/05 05:16:12;;;;;;;;;;;;;;;;;;5061379;28;1994;-75
2022/10/05 05:18:55;;;;;;;;;;;;;;;;;;5062424;28;1016;-75
2022/10/05 05:21:38;;;;;;;;;;;;;;;;;;5062069;28;1890;-75
2022/10/05 05:24:19;;;;;;;;;;;;;;;;;;5044220;28;1322;-75
2022/10/05 05:26:44;;;;;;;;;;;;;;;;;;5061970;28;822;-75
2022/10/05 05:29:19;;;;;;;;;;;;;;;;;;5062352;28;1183;-75
2022/10/05 05:31:44;;;;;;;;;;;;;;;;;;5062058;28;1021;-75
2022/10/05 05:34:25;;;;;;;;;;;;;;;;;;5062453;28;866;-75
2022/10/05 05:37:14;;;;;;;;;;;;;;;;;;5061782;28;1343;-75
2022/10/05 05:39:45;;;;;;;;;;;;;;;;;;5062140;28;1270;-75
2022/10/05 05:42:23;;;;;;;;;;;;;;;;;;5061690;28;1967;-75
2022/10/05 05:44:50;;;;;;;;;;;;;;;;;;5061848;28;930;-75
2022/10/05 05:47:22;;;;;;;;;;;;;;;;;;5061516;28;803;-75
2022/10/05 05:50:02;;;;;;;;;;;;;;;;;;5062008;28;1168;-75
2022/10/05 05:52:29;;;;;;;;;;;;;;;;;;5061837;28;898;-75
2022/10/05 05:55:06;;;;;;;;;;;;;;;;;;5043947;28;957;-75
2022/10/05 05:57:43;;;;;;;;;;;;;;;;;;5061766;28;901;-75
2022/10/05 06:00:18;;;;;;;;;;;;;;;;;;5061994;28;1203;-75
2022/10/05 06:02:46;;;;;;;;;;;;;;;;;;5061859;28;1894;-75
2022/10/05 06:05:22;;;;;;;;;;;;;;;;;;5062135;28;917;-75
2022/10/05 06:07:49;;;;;;;;;;;;;;;;;;5061775;28;899;-75
2022/10/05 06:10:33;;;;;;;;;;;;;;;;;;5062301;28;1275;-75
2022/10/05 06:13:02;;;;;;;;;;;;;;;;;;5061498;28;827;-75
2022/10/05 06:15:42;;;;;;;;;;;;;;;;;;5061212;28;953;-75
2022/10/05 06:18:10;;;;;;;;;;;;;;;;;;5061362;28;1005;-75
2022/10/05 06:20:50;;;;;;;;;;;;;;;;;;5061446;28;1235;-75
2022/10/05 06:23:19;;;;;;;;;;;;;;;;;;5061107;28;862;-75
2022/10/05 06:26:03;;;;;;;;;;;;;;;;;;5060933;28;756;-75
2022/10/05 06:28:28;;;;;;;;;;;;;;;;;;5061249;28;930;-75
2022/10/05 06:30:53;;;;;;;;;;;;;;;;;;5061276;28;1179;-75
2022/10/05 06:33:21;;;;;;;;;;;;;;;;;;5061186;28;957;-75
2022/10/05 06:36:08;;;;;;;;;;;;;;;;;;5060884;28;1201;-75
2022/10/05 06:39:06;;;;;;;;;;;;;;;;;;5060992;28;847;-75
2022/10/05 06:41:52;;;;;;;;;;;;;;;;;;5044000;22;2375;-78
2022/10/05 06:44:36;;;;;;;;;;;;;;;;;;5061767;28;863;-78
2022/10/05 06:47:09;;;;;;;;;;;;;;;;;;5061883;28;1004;-79
2022/10/05 06:49:52;;;;;;;;;;;;;;;;;;5061980;28;898;-79
2022/10/05 06:52:37;;;;;;;;;;;;;;;;;;5041257;28;902;-78
2022/10/05 06:55:05;;;;;;;;;;;;;;;;;;5041471;28;865;-78
2022/10/05 06:57:31;;;;;;;;;;;;;;;;;;5041251;28;968;-78
2022/10/05 07:00:00;;;;;;;;;;;;;;;;;;5041383;28;1173;-78
2022/10/05 07:02:44;;;;;;;;;;;;;;;;;;5041259;28;1902;-78
2022/10/05 07:05:27;;;;;;;;;;;;;;;;;;5041170;28;858;-79
2022/10/05 07:08:03;;;;;;;;;;;;;;;;;;5040873;28;950;-79
2022/10/05 07:10:48;;;;;;;;;;;;;;;;;;5041283;28;1243;-79
2022/10/05 07:13:26;;;;;;;;;;;;;;;;;;5041266;28;807;-79
2022/10/05 07:16:01;;;;;;;;;;;;;;;;;;5041066;28;819;-79
2022/10/05 07:18:31;;;;;;;;;;;;;;;;;;5041042;28;803;-79
2022/10/05 07:21:15;;;;;;;;;;;;;;;;;;5041011;28;1983;-79
2022/10/05 07:23:40;;;;;;;;;;;;;;;;;;5040877;28;942;-79
2022/10/05 07:26:09;;;;;;;;;;;;;;;;;;5040817;28;1005;-79
2022/10/05 07:28:42;;;;;;;;;;;;;;;;;;5041183;28;965;-79
2022/10/05 07:31:20;;;;;;;;;;;;;;;;;;5040975;28;1161;-77
2022/10/05 07:34:05;;;;;;;;;;;;;;;;;;5041000;28;855;-78
2022/10/05 07:40:08;;;;;;;;;;;;;;;;;;5044274;28;613;-78
2022/10/05 07:42:39;;;;;;;;;;;;;;;;;;4982791;28;1894;-78
2022/10/05 07:45:23;;;;;;;;;;;;;;;;;;4982964;28;840;-76
2022/10/05 07:47:56;;;;;;;;;;;;;;;;;;5021198;28;1123;-77
2022/10/05 07:50:25;;;;;;;;;;;;;;;;;;5044233;28;1216;-77
2022/10/05 07:52:59;;;;;;;;;;;;;;;;;;5026359;28;875;-77
2022/10/05 07:55:26;;;;;;;;;;;;;;;;;;5043833;28;980;-77
2022/10/05 07:58:13;;;;;;;;;;;;;;;;;;5044136;28;800;-76
2022/10/05 08:00:58;;;;;;;;;;;;;;;;;;5044091;28;1257;-77
2022/10/05 08:03:32;;;;;;;;;;;;;;;;;;5044370;28;787;-77
2022/10/05 08:05:58;;;;;;;;;;;;;;;;;;5043678;28;1123;-77
2022/10/05 08:08:42;;;;;;;;;;;;;;;;;;5044251;28;788;-76
2022/10/05 08:11:13;;;;;;;;;;;;;;;;;;5044189;28;1157;-76
2022/10/05 08:14:15;;;;;;;;;;;;;;;;;;5043947;28;803;-76
2022/10/05 08:16:41;;;;;;;;;;;;;;;;;;4982632;28;1124;-76
2022/10/05 08:19:18;;;;;;;;;;;;;;;;;;5032179;28;954;-76
2022/10/05 08:21:46;;;;;;;;;;;;;;;;;;5043703;28;1890;-76
2022/10/05 08:24:30;;;;;;;;;;;;;;;;;;5043579;28;1002;-76
2022/10/05 08:26:58;;;;;;;;;;;;;;;;;;5043813;28;1017;-76
2022/10/05 08:29:42;;;;;;;;;;;;;;;;;;5043715;28;792;-76
2022/10/05 08:32:17;;;;;;;;;;;;;;;;;;5043552;28;1274;-76
2022/10/05 08:34:52;;;;;;;;;;;;;;;;;;5043305;28;1014;-76
2022/10/05 08:37:22;;;;;;;;;;;;;;;;;;5043738;28;1309;-76
2022/10/05 08:39:53;;;;;;;;;;;;;;;;;;5043737;28;1228;-76
2022/10/05 08:42:34;;;;;;;;;;;;;;;;;;5043612;28;1905;-77
2022/10/05 08:45:17;;;;;;;;;;;;;;;;;;5043092;28;882;-76
2022/10/05 08:47:58;;;;;;;;;;;;;;;;;;5042934;28;1000;-77
2022/10/05 08:50:50;;;;;;;;;;;;;;;;;;5043147;28;1255;-77
2022/10/05 08:53:18;;;;;;;;;;;;;;;;;;5016059;28;1074;-77
2022/10/05 08:55:49;;;;;;;;;;;;;;;;;;5043008;28;843;-76
2022/10/05 08:58:14;;;;;;;;;;;;;;;;;;5043319;28;895;-77
2022/10/05 09:00:40;;;;;;;;;;;;;;;;;;5043061;28;1168;-77
2022/10/05 09:03:17;;;;;;;;;;;;;;;;;;5043296;28;1898;-76
2022/10/05 09:06:00;;;;;;;;;;;;;;;;;;5042656;28;854;-77
2022/10/05 09:08:44;;;;;;;;;;;;;;;;;;5043134;28;835;-77
2022/10/05 09:11:11;;;;;;;;;;;;;;;;;;5042916;28;1203;-77
2022/10/05 09:13:55;;;;;;;;;;;;;;;;;;5043140;28;807;-77
2022/10/05 09:16:32;;;;;;;;;;;;;;;;;;5042598;28;1064;-77
2022/10/05 09:18:58;;;;;;;;;;;;;;;;;;5042911;28;866;-77
2022/10/05 09:21:29;;;;;;;;;;;;;;;;;;5042856;28;1894;-77
2022/10/05 09:24:09;;;;;;;;;;;;;;;;;;5043106;28;1203;-77
2022/10/05 09:26:49;;;;;;;;;;;;;;;;;;5042285;28;819;-76
2022/10/05 09:29:18;;;;;;;;;;;;;;;;;;5042831;28;1005;-76
2022/10/05 09:32:01;;;;;;;;;;;;;;;;;;5042563;28;1125;-76
2022/10/05 09:34:26;;;;;;;;;;;;;;;;;;5042644;28;906;-77
2022/10/05 09:37:06;;;;;;;;;;;;;;;;;;5042364;28;1053;-76
2022/10/05 09:39:54;;;;;;;;;;;;;;;;;;5042631;28;957;-77
2022/10/05 09:42:31;;;;;;;;;;;;;;;;;;5042474;28;1898;-77
2022/10/05 09:45:17;;;;;;;;;;;;;;;;;;5042456;28;906;-76
2022/10/05 09:47:45;;;;;;;;;;;;;;;;;;5011058;28;1198;-76
2022/10/05 09:50:22;;;;;;;;;;;;;;;;;;5042515;28;1172;-76
2022/10/05 09:53:02;;;;;;;;;;;;;;;;;;5042582;28;898;-77
2022/10/05 09:55:27;;;;;;;;;;;;;;;;;;5042148;28;838;-77
2022/10/05 09:58:06;;;;;;;;;;;;;;;;;;5042060;28;890;-77
2022/10/05 10:00:34;;;;;;;;;;;;;;;;;;5041913;28;1269;-77
2022/10/05 10:03:11;;;;;;;;;;;;;;;;;;5042301;28;1890;-77
2022/10/05 10:06:10;;;;;;;;;;;;;;;;;;5042071;28;994;-77
2022/10/05 10:08:44;;;;;;;;;;;;;;;;;;5009150;28;1520;-76
2022/10/05 10:11:19;;;;;;;;;;;;;;;;;;5042110;28;1165;-76
2022/10/05 10:13:52;;;;;;;;;;;;;;;;;;5042373;28;824;-76
2022/10/05 10:16:36;;;;;;;;;;;;;;;;;;5024160;28;1465;-76
2022/10/05 10:19:15;;;;;;;;;;;;;;;;;;5041954;28;907;-76
2022/10/05 10:22:00;;;;;;;;;;;;;;;;;;5041770;28;1980;-76
2022/10/05 10:24:28;;;;;;;;;;;;;;;;;;5010933;28;1092;-76
2022/10/05 10:26:57;;;;;;;;;;;;;;;;;;5041836;28;1072;-76
2022/10/05 10:29:35;;;;;;;;;;;;;;;;;;5041927;28;1064;-75
2022/10/05 10:32:03;;;;;;;;;;;;;;;;;;5041542;28;1208;-76
2022/10/05 10:34:36;;;;;;;;;;;;;;;;;;5042035;28;846;-76
2022/10/05 10:37:09;;;;;;;;;;;;;;;;;;5041715;28;870;-76
2022/10/05 10:39:53;;;;;;;;;;;;;;;;;;5041717;28;901;-76
2022/10/05 10:42:47;;;;;;;;;;;;;;;;;;5041664;28;1953;-76
2022/10/05 10:45:18;;;;;;;;;;;;;;;;;;5028031;28;1390;-76
2022/10/05 10:47:49;;;;;;;;;;;;;;;;;;5041435;28;803;-76
2022/10/05 10:50:33;;;;;;;;;;;;;;;;;;5041536;28;1176;-76
2022/10/05 10:53:16;;;;;;;;;;;;;;;;;;5041347;28;791;-76
2022/10/05 10:55:50;;;;;;;;;;;;;;;;;;5041310;28;1009;-76
2022/10/05 10:58:34;;;;;;;;;;;;;;;;;;5041525;28;985;-76
2022/10/05 11:01:25;;;;;;;;;;;;;;;;;;5041233;28;1959;-76
2022/10/05 11:04:09;;;;;;;;;;;;;;;;;;5017927;28;1237;-76
2022/10/05 11:06:53;;;;;;;;;;;;;;;;;;5041032;28;854;-76
2022/10/05 11:09:18;;;;;;;;;;;;;;;;;;5041396;28;889;-76
2022/10/05 11:11:57;;;;;;;;;;;;;;;;;;5041178;28;1165;-76
2022/10/05 11:14:48;;;;;;;;;;;;;;;;;;5041092;28;913;-76
2022/10/05 11:17:24;;;;;;;;;;;;;;;;;;5038182;28;1315;-76
2022/10/05 11:20:08;;;;;;;;;;;;;;;;;;5041020;28;1257;-76
2022/10/05 11:22:33;;;;;;;;;;;;;;;;;;5041059;28;1894;-75
2022/10/05 11:25:16;;;;;;;;;;;;;;;;;;5041220;28;929;-77
2022/10/05 11:27:53;;;;;;;;;;;;;;;;;;5041139;28;827;-76
2022/10/05 11:30:25;;;;;;;;;;;;;;;;;;5040840;28;1176;-76
2022/10/05 11:33:12;;;;;;;;;;;;;;;;;;5041003;28;795;-76
2022/10/05 11:35:57;;;;;;;;;;;;;;;;;;5040749;28;1253;-76
2022/10/05 11:38:37;;;;;;;;;;;;;;;;;;5040617;28;965;-76
2022/10/05 11:41:25;;;;;;;;;;;;;;;;;;5040768;28;1898;-76
2022/10/05 11:44:09;;;;;;;;;;;;;;;;;;5040951;28;874;-76
2022/10/05 11:46:52;;;;;;;;;;;;;;;;;;5040548;28;989;-76
2022/10/05 11:49:30;;;;;;;;;;;;;;;;;;5040628;28;1056;-75
2022/10/05 11:52:10;;;;;;;;;;;;;;;;;;5040971;28;1217;-76
2022/10/05 11:54:39;;;;;;;;;;;;;;;;;;5040326;28;811;-76
2022/10/05 11:57:04;;;;;;;;;;;;;;;;;;5040886;28;989;-75
2022/10/05 11:59:33;;;;;;;;;;;;;;;;;;5040503;28;1045;-75
2022/10/05 12:02:12;;;;;;;;;;;;;;;;;;5040495;28;1961;-76
2022/10/05 12:04:40;;;;;;;;;;;;;;;;;;5040298;28;824;-76
2022/10/05 12:07:08;;;;;;;;;;;;;;;;;;5040740;28;878;-76
2022/10/05 12:09:33;;;;;;;;;;;;;;;;;;5040334;28;1001;-76
2022/10/05 12:11:58;;;;;;;;;;;;;;;;;;5040441;28;1169;-75
2022/10/05 12:14:32;;;;;;;;;;;;;;;;;;5040213;28;902;-76
2022/10/05 12:17:00;;;;;;;;;;;;;;;;;;5040577;28;827;-75
2022/10/05 12:19:28;;;;;;;;;;;;;;;;;;5039608;28;791;-76
2022/10/05 12:21:58;;;;;;;;;;;;;;;;;;5040503;28;1910;-76
2022/10/05 12:24:23;;;;;;;;;;;;;;;;;;5043771;28;1050;-76
2022/10/05 12:27:00;;;;;;;;;;;;;;;;;;5043274;28;883;-76
2022/10/05 12:29:44;;;;;;;;;;;;;;;;;;5043600;28;1072;-76
2022/10/05 12:32:10;;;;;;;;;;;;;;;;;;5043622;28;874;-75
2022/10/05 12:34:41;;;;;;;;;;;;;;;;;;5043281;28;886;-76
2022/10/05 12:37:25;;;;;;;;;;;;;;;;;;5043227;28;985;-76
2022/10/05 12:39:55;;;;;;;;;;;;;;;;;;5043639;28;1248;-76
2022/10/05 12:42:39;;;;;;;;;;;;;;;;;;5098339;22;3494;-68
2022/10/05 12:45:22;;;;;;;;;;;;;;;;;;5085028;28;1329;-68
2022/10/05 12:48:06;;;;;;;;;;;;;;;;;;5103791;28;952;-68
2022/10/05 12:50:41;;;;;;;;;;;;;;;;;;5090567;28;1037;-69
2022/10/05 12:53:13;;;;;;;;;;;;;;;;;;5063285;28;898;-69
2022/10/05 12:55:55;;;;;;;;;;;;;;;;;;5063228;28;926;-69
2022/10/05 12:58:39;;;;;;;;;;;;;;;;;;5078956;28;1195;-69
2022/10/05 13:01:27;;;;;;;;;;;;;;;;;;5062757;28;1918;-68
2022/10/05 13:04:17;;;;;;;;;;;;;;;;;;5063226;28;2026;-70
2022/10/05 13:06:52;;;;;;;;;;;;;;;;;;5062907;28;806;-70
2022/10/05 13:09:22;;;;;;;;;;;;;;;;;;5063155;28;803;-70
2022/10/05 13:11:49;;;;;;;;;;;;;;;;;;5061812;28;1239;-70
2022/10/05 13:14:33;;;;;;;;;;;;;;;;;;5063387;28;854;-70
2022/10/05 13:17:23;;;;;;;;;;;;;;;;;;5062884;28;977;-70
2022/10/05 13:19:55;;;;;;;;;;;;;;;;;;5063042;28;1067;-70
2022/10/05 13:22:25;;;;;;;;;;;;;;;;;;5062678;28;1897;-70
2022/10/05 13:25:05;;;;;;;;;;;;;;;;;;5062802;28;835;-70
2022/10/05 13:27:35;;;;;;;;;;;;;;;;;;5062718;28;935;-70
2022/10/05 13:30:11;;;;;;;;;;;;;;;;;;5062839;28;783;-70
2022/10/05 13:32:49;;;;;;;;;;;;;;;;;;5063044;28;1223;-70
2022/10/05 13:35:27;;;;;;;;;;;;;;;;;;5061722;28;783;-70
2022/10/05 13:38:11;;;;;;;;;;;;;;;;;;5062669;28;822;-70
2022/10/05 13:40:41;;;;;;;;;;;;;;;;;;5062614;28;1160;-70
2022/10/05 13:43:15;;;;;;;;;;;;;;;;;;5062382;28;1898;-69
2022/10/05 13:45:47;;;;;;;;;;;;;;;;;;5062444;28;779;-70
2022/10/05 13:48:36;;;;;;;;;;;;;;;;;;5062545;28;894;-70
2022/10/05 13:51:05;;;;;;;;;;;;;;;;;;5061047;28;1187;-70
2022/10/05 13:53:44;;;;;;;;;;;;;;;;;;5062392;28;840;-70
2022/10/05 13:56:09;;;;;;;;;;;;;;;;;;5062219;28;969;-70
2022/10/05 13:58:43;;;;;;;;;;;;;;;;;;5062263;28;890;-70
2022/10/05 14:01:24;;;;;;;;;;;;;;;;;;5062148;28;1905;-70
2022/10/05 14:04:04;;;;;;;;;;;;;;;;;;5062090;28;1041;-69
2022/10/05 14:06:30;;;;;;;;;;;;;;;;;;5062106;28;859;-69
2022/10/05 14:08:56;;;;;;;;;;;;;;;;;;5062000;28;1044;-69
2022/10/05 14:11:32;;;;;;;;;;;;;;;;;;5062052;28;1242;-70
2022/10/05 14:14:03;;;;;;;;;;;;;;;;;;5061983;28;1061;-70
2022/10/05 14:16:29;;;;;;;;;;;;;;;;;;5061857;28;807;-70
2022/10/05 14:19:14;;;;;;;;;;;;;;;;;;5061939;28;988;-70
2022/10/05 14:21:48;;;;;;;;;;;;;;;;;;5061555;28;1957;-70
2022/10/05 14:24:39;;;;;;;;;;;;;;;;;;5062390;28;890;-70
2022/10/05 14:27:17;;;;;;;;;;;;;;;;;;5059566;28;1176;-70
2022/10/05 14:29:42;;;;;;;;;;;;;;;;;;5061743;28;993;-70
2022/10/05 14:32:12;;;;;;;;;;;;;;;;;;5061973;28;1238;-70
2022/10/05 14:34:41;;;;;;;;;;;;;;;;;;5061455;28;1044;-70
2022/10/05 14:37:19;;;;;;;;;;;;;;;;;;5061732;28;1000;-70
2022/10/05 14:39:46;;;;;;;;;;;;;;;;;;5061659;28;838;-70
2022/10/05 14:42:13;;;;;;;;;;;;;;;;;;5061176;28;1897;-70
2022/10/05 14:44:39;;;;;;;;;;;;;;;;;;5059721;28;1416;-70
2022/10/05 14:47:14;;;;;;;;;;;;;;;;;;5061568;28;834;-70
2022/10/05 14:49:47;;;;;;;;;;;;;;;;;;5061602;28;890;-70
2022/10/05 14:52:31;;;;;;;;;;;;;;;;;;5061372;28;1172;-70
2022/10/05 14:55:00;;;;;;;;;;;;;;;;;;5061528;28;909;-70
2022/10/05 14:57:32;;;;;;;;;;;;;;;;;;5061353;28;966;-70
2022/10/05 15:00:17;;;;;;;;;;;;;;;;;;5061187;28;854;-70
2022/10/05 15:03:07;;;;;;;;;;;;;;;;;;5061117;28;1951;-70
2022/10/05 15:05:43;;;;;;;;;;;;;;;;;;5060970;28;846;-70
2022/10/05 15:08:12;;;;;;;;;;;;;;;;;;5061464;28;992;-70
2022/10/05 15:10:42;;;;;;;;;;;;;;;;;;5060809;28;1223;-70
2022/10/05 15:13:10;;;;;;;;;;;;;;;;;;5061425;28;877;-69
2022/10/05 15:15:41;;;;;;;;;;;;;;;;;;5060963;28;882;-70
2022/10/05 15:18:23;;;;;;;;;;;;;;;;;;5061408;28;795;-70
2022/10/05 15:20:48;;;;;;;;;;;;;;;;;;5060889;28;1285;-70
2022/10/05 15:23:31;;;;;;;;;;;;;;;;;;5061019;28;1886;-70
2022/10/05 15:26:15;;;;;;;;;;;;;;;;;;5060790;28;902;-70
2022/10/05 15:28:41;;;;;;;;;;;;;;;;;;5061121;28;869;-70
2022/10/05 15:31:26;;;;;;;;;;;;;;;;;;5060595;28;1274;-70
2022/10/05 15:34:06;;;;;;;;;;;;;;;;;;5053412;28;1171;-70
2022/10/05 15:36:35;;;;;;;;;;;;;;;;;;5060657;28;815;-70
2022/10/05 15:39:19;;;;;;;;;;;;;;;;;;5061006;28;799;-70
2022/10/05 15:41:44;;;;;;;;;;;;;;;;;;5060543;28;1898;-70
2022/10/05 15:44:23;;;;;;;;;;;;;;;;;;5061047;28;832;-70
2022/10/05 15:46:55;;;;;;;;;;;;;;;;;;5060696;28;839;-70
2022/10/05 15:49:20;;;;;;;;;;;;;;;;;;5060693;28;818;-70
2022/10/05 15:51:51;;;;;;;;;;;;;;;;;;5060399;28;1211;-70
2022/10/05 15:54:42;;;;;;;;;;;;;;;;;;5060873;28;724;-70
2022/10/05 15:57:13;;;;;;;;;;;;;;;;;;5043175;28;1084;-70
2022/10/05 15:59:55;;;;;;;;;;;;;;;;;;5064228;28;842;-70
2022/10/05 16:02:32;;;;;;;;;;;;;;;;;;5064213;28;1894;-70
2022/10/05 16:04:57;;;;;;;;;;;;;;;;;;5063636;28;811;-70
2022/10/05 16:10:20;;;;;;;;;;;;;;;;;;5064019;28;691;-70
2022/10/05 16:12:53;;;;;;;;;;;;;;;;;;5063943;28;1164;-70
2022/10/05 16:15:54;;;;;;;;;;;;;;;;;;5063397;28;925;-70
2022/10/05 16:18:31;;;;;;;;;;;;;;;;;;5021956;28;1318;-70
2022/10/05 16:21:08;;;;;;;;;;;;;;;;;;5071180;28;1401;-70
2022/10/05 16:23:52;;;;;;;;;;;;;;;;;;5063726;28;888;-70
2022/10/05 16:26:37;;;;;;;;;;;;;;;;;;5063855;28;992;-70
2022/10/05 16:29:12;;;;;;;;;;;;;;;;;;5063884;28;853;-70
2022/10/05 16:31:53;;;;;;;;;;;;;;;;;;5063692;28;1172;-70
2022/10/05 16:34:18;;;;;;;;;;;;;;;;;;5064059;28;834;-70
2022/10/05 16:36:48;;;;;;;;;;;;;;;;;;5063212;28;878;-70
2022/10/05 16:39:43;;;;;;;;;;;;;;;;;;5063601;28;1079;-70
2022/10/05 16:42:22;;;;;;;;;;;;;;;;;;5025939;28;1890;-70
2022/10/05 16:45:06;;;;;;;;;;;;;;;;;;5063421;28;1084;-70
2022/10/05 16:47:34;;;;;;;;;;;;;;;;;;5063407;28;890;-70
2022/10/05 16:49:59;;;;;;;;;;;;;;;;;;5063804;28;937;-70
2022/10/05 16:52:25;;;;;;;;;;;;;;;;;;5063154;28;1168;-70
2022/10/05 16:54:52;;;;;;;;;;;;;;;;;;5063066;28;842;-70
2022/10/05 16:57:47;;;;;;;;;;;;;;;;;;5063238;28;930;-70
2022/10/05 17:00:31;;;;;;;;;;;;;;;;;;5054066;28;1518;-70
2022/10/05 17:03:15;;;;;;;;;;;;;;;;;;5061532;28;2236;-70
2022/10/05 17:05:46;;;;;;;;;;;;;;;;;;5062949;28;1040;-69
2022/10/05 17:08:14;;;;;;;;;;;;;;;;;;5062761;28;914;-70
2022/10/05 17:10:57;;;;;;;;;;;;;;;;;;5063142;28;1212;-70
2022/10/05 17:13:27;;;;;;;;;;;;;;;;;;5062963;28;1049;-69
2022/10/05 17:15:59;;;;;;;;;;;;;;;;;;5062868;28;909;-70
2022/10/05 17:18:48;;;;;;;;;;;;;;;;;;5063096;28;798;-70
2022/10/05 17:21:30;;;;;;;;;;;;;;;;;;5062708;28;1889;-70
2022/10/05 17:24:11;;;;;;;;;;;;;;;;;;5062944;28;877;-70
2022/10/05 17:26:45;;;;;;;;;;;;;;;;;;5062611;28;902;-70
2022/10/05 17:29:27;;;;;;;;;;;;;;;;;;5062821;28;874;-70
2022/10/05 17:32:32;;;;;;;;;;;;;;;;;;5062313;28;1188;-70
2022/10/05 17:35:00;;;;;;;;;;;;;;;;;;5061832;28;909;-69
2022/10/05 17:37:34;;;;;;;;;;;;;;;;;;5062772;28;847;-70
2022/10/05 17:40:19;;;;;;;;;;;;;;;;;;5062864;28;878;-70
2022/10/05 17:42:45;;;;;;;;;;;;;;;;;;5062204;28;1977;-70
2022/10/05 17:45:10;;;;;;;;;;;;;;;;;;5062352;28;873;-70
2022/10/05 17:47:55;;;;;;;;;;;;;;;;;;5062581;28;869;-70
2022/10/05 17:56:06;;;;;;;;;;;;;;;;;;5062621;28;610;-70
2022/10/05 17:58:31;;;;;;;;;;;;;;;;;;5062527;28;918;-71
2022/10/05 18:00:56;;;;;;;;;;;;;;;;;;5062177;28;1188;-70
2022/10/05 18:03:34;;;;;;;;;;;;;;;;;;5062111;28;1906;-70
2022/10/05 18:06:17;;;;;;;;;;;;;;;;;;5061920;28;795;-70
2022/10/05 18:08:43;;;;;;;;;;;;;;;;;;5062476;28;842;-70
2022/10/05 18:11:08;;;;;;;;;;;;;;;;;;5061960;28;1212;-70
2022/10/05 18:13:34;;;;;;;;;;;;;;;;;;5062098;28;869;-70
2022/10/05 18:15:59;;;;;;;;;;;;;;;;;;5061954;28;953;-71
2022/10/05 18:18:32;;;;;;;;;;;;;;;;;;5062079;28;902;-70